Bloomsburg, Pennsylvania
Current Conditions -  °F | °C
As of 1:15 AM on Thursday 29 Jan 2015 (Local Time) from KHZL Reporting Station
Clear Clear  
Wind Chill: 12°   Ceiling: Unl
Heat Index: 12°   Visibility: 10mi
Dew Point:   Wind: 3mph
Humidity: 67%   Direction: 330°NNW
Pressure: 30.25"   Gusts: NA
Location:  41°N, 76.45°W
Report Text: KHZL 290615Z AUTO 33003KT 10SM CLR M11/M16 A3025 RMK AO2
Loading
Personal Weather Stations






























Interactive Weather Map New forecast layout! Learn more

10-Day Weather Forecast

Advertisements
Track Severe Weather on mobile